sensor_id;sensor_type;location;lat;lon;timestamp;temperature;humidity
79301;SHT31;68755;51.984;5.646;2024-02-26T00:00:40;7.2;73.0
79301;SHT31;68755;51.984;5.646;2024-02-26T00:03:09;7.1;73.1
79301;SHT31;68755;51.984;5.646;2024-02-26T00:05:40;7.1;73.0
79301;SHT31;68755;51.984;5.646;2024-02-26T00:08:10;7.1;73.1
79301;SHT31;68755;51.984;5.646;2024-02-26T00:10:39;7.1;73.0
79301;SHT31;68755;51.984;5.646;2024-02-26T00:13:10;7.1;73.0
79301;SHT31;68755;51.984;5.646;2024-02-26T00:15:40;7.1;72.8
79301;SHT31;68755;51.984;5.646;2024-02-26T00:18:10;7.1;72.7
79301;SHT31;68755;51.984;5.646;2024-02-26T00:20:41;7.1;72.8
79301;SHT31;68755;51.984;5.646;2024-02-26T00:23:10;7.1;72.7
79301;SHT31;68755;51.984;5.646;2024-02-26T00:25:40;7.1;72.8
79301;SHT31;68755;51.984;5.646;2024-02-26T00:28:11;7.1;72.8
79301;SHT31;68755;51.984;5.646;2024-02-26T00:30:41;7.1;73.1
79301;SHT31;68755;51.984;5.646;2024-02-26T00:33:11;7.1;72.9
79301;SHT31;68755;51.984;5.646;2024-02-26T00:35:40;7.1;72.9
79301;SHT31;68755;51.984;5.646;2024-02-26T00:38:10;7.1;72.9
79301;SHT31;68755;51.984;5.646;2024-02-26T00:40:40;7.1;73.1
79301;SHT31;68755;51.984;5.646;2024-02-26T00:43:10;7.0;73.1
79301;SHT31;68755;51.984;5.646;2024-02-26T00:45:40;7.0;73.1
79301;SHT31;68755;51.984;5.646;2024-02-26T00:48:09;7.0;73.3
79301;SHT31;68755;51.984;5.646;2024-02-26T00:50:41;7.0;73.3
79301;SHT31;68755;51.984;5.646;2024-02-26T00:53:11;7.0;73.3
79301;SHT31;68755;51.984;5.646;2024-02-26T00:55:41;7.0;73.1
79301;SHT31;68755;51.984;5.646;2024-02-26T00:58:11;7.0;73.4
79301;SHT31;68755;51.984;5.646;2024-02-26T01:00:41;7.0;73.5
79301;SHT31;68755;51.984;5.646;2024-02-26T01:03:11;7.0;73.5
79301;SHT31;68755;51.984;5.646;2024-02-26T01:05:40;7.0;73.5
79301;SHT31;68755;51.984;5.646;2024-02-26T01:08:10;7.0;73.5
79301;SHT31;68755;51.984;5.646;2024-02-26T01:10:40;7.0;73.4
79301;SHT31;68755;51.984;5.646;2024-02-26T01:13:10;7.0;73.3
79301;SHT31;68755;51.984;5.646;2024-02-26T01:15:40;7.0;73.3
79301;SHT31;68755;51.984;5.646;2024-02-26T01:18:12;7.0;73.4
79301;SHT31;68755;51.984;5.646;2024-02-26T01:20:42;7.0;73.2
79301;SHT31;68755;51.984;5.646;2024-02-26T01:23:12;7.0;73.1
79301;SHT31;68755;51.984;5.646;2024-02-26T01:25:42;7.0;73.2
79301;SHT31;68755;51.984;5.646;2024-02-26T01:28:12;7.0;73.2
79301;SHT31;68755;51.984;5.646;2024-02-26T01:30:42;7.0;73.1
79301;SHT31;68755;51.984;5.646;2024-02-26T01:33:12;6.9;73.2
79301;SHT31;68755;51.984;5.646;2024-02-26T01:35:42;6.9;73.1
79301;SHT31;68755;51.984;5.646;2024-02-26T01:38:14;6.9;73.3
79301;SHT31;68755;51.984;5.646;2024-02-26T01:40:44;6.9;73.3
79301;SHT31;68755;51.984;5.646;2024-02-26T01:43:13;6.9;73.4
79301;SHT31;68755;51.984;5.646;2024-02-26T01:45:44;6.9;73.3
79301;SHT31;68755;51.984;5.646;2024-02-26T01:48:14;6.9;73.5
79301;SHT31;68755;51.984;5.646;2024-02-26T01:50:44;7.0;73.6
79301;SHT31;68755;51.984;5.646;2024-02-26T01:53:20;7.0;73.7
79301;SHT31;68755;51.984;5.646;2024-02-26T01:55:51;7.0;73.5
79301;SHT31;68755;51.984;5.646;2024-02-26T01:58:21;7.0;73.5
79301;SHT31;68755;51.984;5.646;2024-02-26T02:00:51;7.0;73.4
79301;SHT31;68755;51.984;5.646;2024-02-26T02:03:21;7.0;73.5
79301;SHT31;68755;51.984;5.646;2024-02-26T02:05:53;7.0;73.3
79301;SHT31;68755;51.984;5.646;2024-02-26T02:08:23;7.0;73.5
79301;SHT31;68755;51.984;5.646;2024-02-26T02:10:55;7.0;73.4
79301;SHT31;68755;51.984;5.646;2024-02-26T02:13:25;7.0;73.0
79301;SHT31;68755;51.984;5.646;2024-02-26T02:15:55;7.0;72.8
79301;SHT31;68755;51.984;5.646;2024-02-26T02:18:25;7.0;72.7
79301;SHT31;68755;51.984;5.646;2024-02-26T02:20:55;7.0;73.2
79301;SHT31;68755;51.984;5.646;2024-02-26T02:23:27;7.1;72.8
79301;SHT31;68755;51.984;5.646;2024-02-26T02:25:58;7.1;72.8
79301;SHT31;68755;51.984;5.646;2024-02-26T02:28:30;7.1;72.9
79301;SHT31;68755;51.984;5.646;2024-02-26T02:31:00;7.1;72.7
79301;SHT31;68755;51.984;5.646;2024-02-26T02:33:31;7.1;72.5
79301;SHT31;68755;51.984;5.646;2024-02-26T02:36:01;7.1;72.6
79301;SHT31;68755;51.984;5.646;2024-02-26T02:38:34;7.1;72.7
79301;SHT31;68755;51.984;5.646;2024-02-26T02:41:04;7.1;72.5
79301;SHT31;68755;51.984;5.646;2024-02-26T02:43:35;7.1;72.6
79301;SHT31;68755;51.984;5.646;2024-02-26T02:46:07;7.1;72.6
79301;SHT31;68755;51.984;5.646;2024-02-26T02:48:41;7.1;72.6
79301;SHT31;68755;51.984;5.646;2024-02-26T02:51:11;7.1;72.5
79301;SHT31;68755;51.984;5.646;2024-02-26T02:53:41;7.1;72.8
79301;SHT31;68755;51.984;5.646;2024-02-26T02:56:10;7.1;72.7
79301;SHT31;68755;51.984;5.646;2024-02-26T02:58:41;7.1;73.0
79301;SHT31;68755;51.984;5.646;2024-02-26T03:01:12;7.1;72.8
79301;SHT31;68755;51.984;5.646;2024-02-26T03:03:42;7.1;73.1
79301;SHT31;68755;51.984;5.646;2024-02-26T03:06:12;7.1;73.2
79301;SHT31;68755;51.984;5.646;2024-02-26T03:08:42;7.1;73.1
79301;SHT31;68755;51.984;5.646;2024-02-26T03:11:15;7.1;73.1
79301;SHT31;68755;51.984;5.646;2024-02-26T03:13:45;7.1;73.0
79301;SHT31;68755;51.984;5.646;2024-02-26T03:16:14;7.1;73.0
79301;SHT31;68755;51.984;5.646;2024-02-26T03:18:44;7.1;73.0
79301;SHT31;68755;51.984;5.646;2024-02-26T03:21:14;7.1;73.1
79301;SHT31;68755;51.984;5.646;2024-02-26T03:23:44;7.1;73.2
79301;SHT31;68755;51.984;5.646;2024-02-26T03:26:13;7.0;73.0
79301;SHT31;68755;51.984;5.646;2024-02-26T03:28:45;7.0;73.0
79301;SHT31;68755;51.984;5.646;2024-02-26T03:31:15;7.0;72.8
79301;SHT31;68755;51.984;5.646;2024-02-26T03:33:45;7.0;72.5
79301;SHT31;68755;51.984;5.646;2024-02-26T03:36:15;7.0;72.6
79301;SHT31;68755;51.984;5.646;2024-02-26T03:38:46;7.0;72.7
79301;SHT31;68755;51.984;5.646;2024-02-26T03:41:15;7.0;72.5
79301;SHT31;68755;51.984;5.646;2024-02-26T03:43:45;7.0;72.4
79301;SHT31;68755;51.984;5.646;2024-02-26T03:46:15;7.0;72.3
79301;SHT31;68755;51.984;5.646;2024-02-26T03:48:47;7.0;72.9
79301;SHT31;68755;51.984;5.646;2024-02-26T03:51:17;7.0;72.4
79301;SHT31;68755;51.984;5.646;2024-02-26T03:53:46;7.0;72.3
79301;SHT31;68755;51.984;5.646;2024-02-26T03:56:16;7.0;72.5
79301;SHT31;68755;51.984;5.646;2024-02-26T03:58:48;7.0;72.0
79301;SHT31;68755;51.984;5.646;2024-02-26T04:01:17;7.0;72.3
79301;SHT31;68755;51.984;5.646;2024-02-26T04:03:47;7.0;72.0
79301;SHT31;68755;51.984;5.646;2024-02-26T04:06:17;7.0;72.2
79301;SHT31;68755;51.984;5.646;2024-02-26T04:08:48;7.0;72.0
79301;SHT31;68755;51.984;5.646;2024-02-26T04:11:18;7.0;72.2
79301;SHT31;68755;51.984;5.646;2024-02-26T04:13:48;7.0;72.3
79301;SHT31;68755;51.984;5.646;2024-02-26T04:16:23;7.0;72.3
79301;SHT31;68755;51.984;5.646;2024-02-26T04:18:53;7.0;72.4
79301;SHT31;68755;51.984;5.646;2024-02-26T04:21:23;7.0;72.7
79301;SHT31;68755;51.984;5.646;2024-02-26T04:23:53;7.0;72.3
79301;SHT31;68755;51.984;5.646;2024-02-26T04:26:25;7.0;72.6
79301;SHT31;68755;51.984;5.646;2024-02-26T04:28:55;7.0;72.5
79301;SHT31;68755;51.984;5.646;2024-02-26T04:31:25;7.0;72.6
79301;SHT31;68755;51.984;5.646;2024-02-26T04:33:56;7.0;72.8
79301;SHT31;68755;51.984;5.646;2024-02-26T04:36:27;6.9;73.0
79301;SHT31;68755;51.984;5.646;2024-02-26T04:38:57;6.9;73.3
79301;SHT31;68755;51.984;5.646;2024-02-26T04:41:27;6.9;73.3
79301;SHT31;68755;51.984;5.646;2024-02-26T04:43:57;6.9;73.1
79301;SHT31;68755;51.984;5.646;2024-02-26T04:46:27;6.9;73.2
79301;SHT31;68755;51.984;5.646;2024-02-26T04:48:57;6.9;73.4
79301;SHT31;68755;51.984;5.646;2024-02-26T04:51:27;6.9;73.5
79301;SHT31;68755;51.984;5.646;2024-02-26T04:53:58;6.9;73.1
79301;SHT31;68755;51.984;5.646;2024-02-26T04:56:28;6.9;73.9
79301;SHT31;68755;51.984;5.646;2024-02-26T04:58:58;6.8;73.8
79301;SHT31;68755;51.984;5.646;2024-02-26T05:01:27;6.8;73.9
79301;SHT31;68755;51.984;5.646;2024-02-26T05:03:57;6.8;73.6
79301;SHT31;68755;51.984;5.646;2024-02-26T05:06:28;6.8;73.7
79301;SHT31;68755;51.984;5.646;2024-02-26T05:08:58;6.8;73.7
79301;SHT31;68755;51.984;5.646;2024-02-26T05:11:29;6.8;74.1
79301;SHT31;68755;51.984;5.646;2024-02-26T05:13:59;6.8;74.1
79301;SHT31;68755;51.984;5.646;2024-02-26T05:16:29;6.8;74.3
79301;SHT31;68755;51.984;5.646;2024-02-26T05:18:59;6.8;74.6
79301;SHT31;68755;51.984;5.646;2024-02-26T05:21:30;6.8;74.1
79301;SHT31;68755;51.984;5.646;2024-02-26T05:24:01;6.8;74.4
79301;SHT31;68755;51.984;5.646;2024-02-26T05:26:31;6.8;74.5
79301;SHT31;68755;51.984;5.646;2024-02-26T05:29:02;6.8;74.5
79301;SHT31;68755;51.984;5.646;2024-02-26T05:31:35;6.7;74.9
79301;SHT31;68755;51.984;5.646;2024-02-26T05:34:05;6.7;75.0
79301;SHT31;68755;51.984;5.646;2024-02-26T05:36:34;6.7;74.6
79301;SHT31;68755;51.984;5.646;2024-02-26T05:39:04;6.7;75.1
79301;SHT31;68755;51.984;5.646;2024-02-26T05:41:34;6.7;75.1
79301;SHT31;68755;51.984;5.646;2024-02-26T05:44:04;6.7;74.7
79301;SHT31;68755;51.984;5.646;2024-02-26T05:46:37;6.7;75.0
79301;SHT31;68755;51.984;5.646;2024-02-26T05:49:07;6.7;75.2
79301;SHT31;68755;51.984;5.646;2024-02-26T05:51:37;6.7;75.4
79301;SHT31;68755;51.984;5.646;2024-02-26T05:54:07;6.7;75.6
79301;SHT31;68755;51.984;5.646;2024-02-26T05:56:37;6.7;75.5
79301;SHT31;68755;51.984;5.646;2024-02-26T05:59:09;6.7;75.5
79301;SHT31;68755;51.984;5.646;2024-02-26T06:01:39;6.7;75.5
79301;SHT31;68755;51.984;5.646;2024-02-26T06:04:11;6.7;76.0
79301;SHT31;68755;51.984;5.646;2024-02-26T06:06:43;6.6;75.7
79301;SHT31;68755;51.984;5.646;2024-02-26T06:09:14;6.6;75.7
79301;SHT31;68755;51.984;5.646;2024-02-26T06:11:45;6.6;76.0
79301;SHT31;68755;51.984;5.646;2024-02-26T06:14:14;6.6;75.7
79301;SHT31;68755;51.984;5.646;2024-02-26T06:16:45;6.6;75.3
79301;SHT31;68755;51.984;5.646;2024-02-26T06:19:16;6.6;75.5
79301;SHT31;68755;51.984;5.646;2024-02-26T06:21:47;6.7;75.5
79301;SHT31;68755;51.984;5.646;2024-02-26T06:24:18;6.7;75.4
79301;SHT31;68755;51.984;5.646;2024-02-26T06:26:50;6.7;75.4
79301;SHT31;68755;51.984;5.646;2024-02-26T06:29:19;6.7;75.5
79301;SHT31;68755;51.984;5.646;2024-02-26T06:31:49;6.7;75.3
79301;SHT31;68755;51.984;5.646;2024-02-26T06:34:19;6.7;75.6
79301;SHT31;68755;51.984;5.646;2024-02-26T06:36:52;6.7;75.6
79301;SHT31;68755;51.984;5.646;2024-02-26T06:39:21;6.7;75.3
79301;SHT31;68755;51.984;5.646;2024-02-26T06:41:51;6.7;75.4
79301;SHT31;68755;51.984;5.646;2024-02-26T06:44:26;6.7;75.6
79301;SHT31;68755;51.984;5.646;2024-02-26T06:47:01;6.6;75.6
79301;SHT31;68755;51.984;5.646;2024-02-26T06:49:31;6.6;75.6
79301;SHT31;68755;51.984;5.646;2024-02-26T06:52:01;6.6;75.7
79301;SHT31;68755;51.984;5.646;2024-02-26T06:54:31;6.6;76.2
79301;SHT31;68755;51.984;5.646;2024-02-26T06:57:02;6.7;76.2
79301;SHT31;68755;51.984;5.646;2024-02-26T06:59:31;6.7;75.9
79301;SHT31;68755;51.984;5.646;2024-02-26T07:02:03;6.7;75.8
79301;SHT31;68755;51.984;5.646;2024-02-26T07:04:32;6.7;75.9
79301;SHT31;68755;51.984;5.646;2024-02-26T07:07:02;6.7;75.9
79301;SHT31;68755;51.984;5.646;2024-02-26T07:09:32;6.7;76.0
79301;SHT31;68755;51.984;5.646;2024-02-26T07:12:01;6.7;76.0
79301;SHT31;68755;51.984;5.646;2024-02-26T07:14:31;6.7;76.1
79301;SHT31;68755;51.984;5.646;2024-02-26T07:17:02;6.7;76.5
79301;SHT31;68755;51.984;5.646;2024-02-26T07:19:32;6.7;76.6
79301;SHT31;68755;51.984;5.646;2024-02-26T07:22:03;6.7;76.4
79301;SHT31;68755;51.984;5.646;2024-02-26T07:24:33;6.6;76.9
79301;SHT31;68755;51.984;5.646;2024-02-26T07:27:03;6.7;77.1
79301;SHT31;68755;51.984;5.646;2024-02-26T07:29:33;6.7;76.7
79301;SHT31;68755;51.984;5.646;2024-02-26T07:32:03;6.7;76.8
79301;SHT31;68755;51.984;5.646;2024-02-26T07:34:33;6.6;77.0
79301;SHT31;68755;51.984;5.646;2024-02-26T07:37:03;6.6;77.2
79301;SHT31;68755;51.984;5.646;2024-02-26T07:39:34;6.6;77.5
79301;SHT31;68755;51.984;5.646;2024-02-26T07:42:09;6.6;77.9
79301;SHT31;68755;51.984;5.646;2024-02-26T07:44:39;6.6;78.3
79301;SHT31;68755;51.984;5.646;2024-02-26T07:47:10;6.5;78.3
79301;SHT31;68755;51.984;5.646;2024-02-26T07:49:41;6.5;78.4
79301;SHT31;68755;51.984;5.646;2024-02-26T07:52:11;6.5;78.7
79301;SHT31;68755;51.984;5.646;2024-02-26T07:54:40;6.5;78.9
79301;SHT31;68755;51.984;5.646;2024-02-26T07:57:10;6.5;79.1
79301;SHT31;68755;51.984;5.646;2024-02-26T07:59:46;6.5;79.0
79301;SHT31;68755;51.984;5.646;2024-02-26T08:02:17;6.4;79.5
79301;SHT31;68755;51.984;5.646;2024-02-26T08:04:47;6.4;79.7
79301;SHT31;68755;51.984;5.646;2024-02-26T08:07:17;6.4;79.7
79301;SHT31;68755;51.984;5.646;2024-02-26T08:09:49;6.4;79.7
79301;SHT31;68755;51.984;5.646;2024-02-26T08:12:19;6.4;80.1
79301;SHT31;68755;51.984;5.646;2024-02-26T08:14:48;6.4;80.2
79301;SHT31;68755;51.984;5.646;2024-02-26T08:17:19;6.4;80.0
79301;SHT31;68755;51.984;5.646;2024-02-26T08:19:49;6.4;80.2
79301;SHT31;68755;51.984;5.646;2024-02-26T08:22:20;6.4;80.2
79301;SHT31;68755;51.984;5.646;2024-02-26T08:24:50;6.4;80.3
79301;SHT31;68755;51.984;5.646;2024-02-26T08:27:21;6.4;80.2
79301;SHT31;68755;51.984;5.646;2024-02-26T08:29:51;6.4;80.5
79301;SHT31;68755;51.984;5.646;2024-02-26T08:32:21;6.4;80.6
79301;SHT31;68755;51.984;5.646;2024-02-26T08:34:50;6.4;80.5
79301;SHT31;68755;51.984;5.646;2024-02-26T08:37:20;6.4;80.9
79301;SHT31;68755;51.984;5.646;2024-02-26T08:39:49;6.4;80.6
79301;SHT31;68755;51.984;5.646;2024-02-26T08:42:19;6.4;80.9
79301;SHT31;68755;51.984;5.646;2024-02-26T08:44:51;6.4;80.8
79301;SHT31;68755;51.984;5.646;2024-02-26T08:47:22;6.4;80.9
79301;SHT31;68755;51.984;5.646;2024-02-26T08:49:51;6.4;81.1
79301;SHT31;68755;51.984;5.646;2024-02-26T08:52:21;6.4;81.6
79301;SHT31;68755;51.984;5.646;2024-02-26T08:54:53;6.4;81.8
79301;SHT31;68755;51.984;5.646;2024-02-26T08:57:23;6.4;81.6
79301;SHT31;68755;51.984;5.646;2024-02-26T08:59:54;6.4;81.7
79301;SHT31;68755;51.984;5.646;2024-02-26T09:02:24;6.5;81.8
79301;SHT31;68755;51.984;5.646;2024-02-26T09:04:53;6.5;82.0
79301;SHT31;68755;51.984;5.646;2024-02-26T09:07:24;6.5;82.2
79301;SHT31;68755;51.984;5.646;2024-02-26T09:09:54;6.5;82.3
79301;SHT31;68755;51.984;5.646;2024-02-26T09:12:24;6.5;82.3
79301;SHT31;68755;51.984;5.646;2024-02-26T09:14:54;6.5;81.6
79301;SHT31;68755;51.984;5.646;2024-02-26T09:17:23;6.5;81.8
79301;SHT31;68755;51.984;5.646;2024-02-26T09:19:53;6.5;82.1
79301;SHT31;68755;51.984;5.646;2024-02-26T09:22:22;6.5;82.2
79301;SHT31;68755;51.984;5.646;2024-02-26T09:24:52;6.5;82.5
79301;SHT31;68755;51.984;5.646;2024-02-26T09:27:21;6.5;82.7
79301;SHT31;68755;51.984;5.646;2024-02-26T09:29:51;6.5;82.7
79301;SHT31;68755;51.984;5.646;2024-02-26T09:32:21;6.5;82.1
79301;SHT31;68755;51.984;5.646;2024-02-26T09:34:52;6.5;82.4
79301;SHT31;68755;51.984;5.646;2024-02-26T09:37:21;6.5;82.5
79301;SHT31;68755;51.984;5.646;2024-02-26T09:39:51;6.5;82.6
79301;SHT31;68755;51.984;5.646;2024-02-26T09:42:24;6.5;82.5
79301;SHT31;68755;51.984;5.646;2024-02-26T09:44:56;6.5;82.4
79301;SHT31;68755;51.984;5.646;2024-02-26T09:47:31;6.5;82.8
79301;SHT31;68755;51.984;5.646;2024-02-26T09:50:02;6.5;82.9
79301;SHT31;68755;51.984;5.646;2024-02-26T09:52:33;6.5;82.9
79301;SHT31;68755;51.984;5.646;2024-02-26T09:55:05;6.5;83.0
79301;SHT31;68755;51.984;5.646;2024-02-26T09:57:37;6.5;83.1
79301;SHT31;68755;51.984;5.646;2024-02-26T10:00:10;6.5;82.9
79301;SHT31;68755;51.984;5.646;2024-02-26T10:02:45;6.5;83.0
79301;SHT31;68755;51.984;5.646;2024-02-26T10:05:17;6.5;81.9
79301;SHT31;68755;51.984;5.646;2024-02-26T10:07:48;6.5;81.8
79301;SHT31;68755;51.984;5.646;2024-02-26T10:10:17;6.5;82.0
79301;SHT31;68755;51.984;5.646;2024-02-26T10:12:49;6.5;82.1
79301;SHT31;68755;51.984;5.646;2024-02-26T10:15:19;6.5;82.3
79301;SHT31;68755;51.984;5.646;2024-02-26T10:17:49;6.5;82.3
79301;SHT31;68755;51.984;5.646;2024-02-26T10:20:19;6.5;82.0
79301;SHT31;68755;51.984;5.646;2024-02-26T10:22:50;6.5;82.2
79301;SHT31;68755;51.984;5.646;2024-02-26T10:25:22;6.5;82.3
79301;SHT31;68755;51.984;5.646;2024-02-26T10:27:52;6.5;82.4
79301;SHT31;68755;51.984;5.646;2024-02-26T10:30:23;6.5;82.5
79301;SHT31;68755;51.984;5.646;2024-02-26T10:32:54;6.5;82.1
79301;SHT31;68755;51.984;5.646;2024-02-26T10:35:25;6.5;82.2
79301;SHT31;68755;51.984;5.646;2024-02-26T10:37:56;6.5;82.5
79301;SHT31;68755;51.984;5.646;2024-02-26T10:40:25;6.5;83.0
79301;SHT31;68755;51.984;5.646;2024-02-26T10:42:57;6.5;82.8
79301;SHT31;68755;51.984;5.646;2024-02-26T10:45:28;6.5;82.7
79301;SHT31;68755;51.984;5.646;2024-02-26T10:48:00;6.5;82.8
79301;SHT31;68755;51.984;5.646;2024-02-26T10:50:30;6.5;83.1
79301;SHT31;68755;51.984;5.646;2024-02-26T10:53:00;6.5;83.3
79301;SHT31;68755;51.984;5.646;2024-02-26T10:55:33;6.5;82.8
79301;SHT31;68755;51.984;5.646;2024-02-26T10:58:08;6.5;83.0
79301;SHT31;68755;51.984;5.646;2024-02-26T11:00:40;6.5;83.4
79301;SHT31;68755;51.984;5.646;2024-02-26T11:03:11;6.5;83.1
79301;SHT31;68755;51.984;5.646;2024-02-26T11:05:46;6.6;83.0
79301;SHT31;68755;51.984;5.646;2024-02-26T11:08:18;6.6;82.8
79301;SHT31;68755;51.984;5.646;2024-02-26T11:10:52;6.6;82.9
79301;SHT31;68755;51.984;5.646;2024-02-26T11:13:27;6.6;82.6
79301;SHT31;68755;51.984;5.646;2024-02-26T11:15:58;6.6;82.3
79301;SHT31;68755;51.984;5.646;2024-02-26T11:18:30;6.6;82.4
79301;SHT31;68755;51.984;5.646;2024-02-26T11:21:03;6.6;82.5
79301;SHT31;68755;51.984;5.646;2024-02-26T11:23:35;6.6;83.0
79301;SHT31;68755;51.984;5.646;2024-02-26T11:26:10;6.6;83.3
79301;SHT31;68755;51.984;5.646;2024-02-26T11:28:41;6.6;83.1
79301;SHT31;68755;51.984;5.646;2024-02-26T11:31:12;6.6;83.3
79301;SHT31;68755;51.984;5.646;2024-02-26T11:33:42;6.6;83.1
79301;SHT31;68755;51.984;5.646;2024-02-26T11:36:12;6.6;82.8
79301;SHT31;68755;51.984;5.646;2024-02-26T11:38:44;6.6;83.0
79301;SHT31;68755;51.984;5.646;2024-02-26T11:41:17;6.6;83.4
79301;SHT31;68755;51.984;5.646;2024-02-26T11:43:57;6.6;83.3
79301;SHT31;68755;51.984;5.646;2024-02-26T11:46:30;6.6;83.4
79301;SHT31;68755;51.984;5.646;2024-02-26T11:49:02;6.6;83.4
79301;SHT31;68755;51.984;5.646;2024-02-26T11:51:34;6.6;83.1
79301;SHT31;68755;51.984;5.646;2024-02-26T11:54:06;6.6;83.4
79301;SHT31;68755;51.984;5.646;2024-02-26T11:56:40;6.6;83.3
79301;SHT31;68755;51.984;5.646;2024-02-26T11:59:11;6.6;82.8
79301;SHT31;68755;51.984;5.646;2024-02-26T12:01:45;6.6;83.1
79301;SHT31;68755;51.984;5.646;2024-02-26T12:04:17;6.6;83.1
79301;SHT31;68755;51.984;5.646;2024-02-26T12:06:51;6.6;83.0
79301;SHT31;68755;51.984;5.646;2024-02-26T12:09:38;6.6;82.8
79301;SHT31;68755;51.984;5.646;2024-02-26T12:12:11;6.6;82.8
79301;SHT31;68755;51.984;5.646;2024-02-26T12:14:52;6.6;83.3
79301;SHT31;68755;51.984;5.646;2024-02-26T12:17:25;6.6;83.4
79301;SHT31;68755;51.984;5.646;2024-02-26T12:20:09;6.6;83.4
79301;SHT31;68755;51.984;5.646;2024-02-26T12:22:47;6.6;82.8
79301;SHT31;68755;51.984;5.646;2024-02-26T12:25:23;6.6;83.3
79301;SHT31;68755;51.984;5.646;2024-02-26T12:27:54;6.7;82.9
79301;SHT31;68755;51.984;5.646;2024-02-26T12:30:28;6.7;82.8
79301;SHT31;68755;51.984;5.646;2024-02-26T12:33:00;6.7;82.4
79301;SHT31;68755;51.984;5.646;2024-02-26T12:35:30;6.7;82.6
79301;SHT31;68755;51.984;5.646;2024-02-26T12:38:01;6.7;83.0
79301;SHT31;68755;51.984;5.646;2024-02-26T12:40:32;6.7;82.5
79301;SHT31;68755;51.984;5.646;2024-02-26T12:43:02;6.7;82.8
79301;SHT31;68755;51.984;5.646;2024-02-26T12:45:32;6.7;82.3
79301;SHT31;68755;51.984;5.646;2024-02-26T12:48:02;6.7;83.0
79301;SHT31;68755;51.984;5.646;2024-02-26T12:50:34;6.7;82.6
79301;SHT31;68755;51.984;5.646;2024-02-26T12:53:05;6.7;82.7
79301;SHT31;68755;51.984;5.646;2024-02-26T12:55:37;6.7;82.8
79301;SHT31;68755;51.984;5.646;2024-02-26T12:58:09;6.7;82.6
79301;SHT31;68755;51.984;5.646;2024-02-26T13:00:39;6.7;82.8
79301;SHT31;68755;51.984;5.646;2024-02-26T13:03:10;6.7;82.5
79301;SHT31;68755;51.984;5.646;2024-02-26T13:05:40;6.8;82.2
79301;SHT31;68755;51.984;5.646;2024-02-26T13:08:10;6.8;82.1
79301;SHT31;68755;51.984;5.646;2024-02-26T13:10:45;6.8;82.3
79301;SHT31;68755;51.984;5.646;2024-02-26T13:13:16;6.8;82.4
79301;SHT31;68755;51.984;5.646;2024-02-26T13:15:47;6.8;82.4
79301;SHT31;68755;51.984;5.646;2024-02-26T13:18:16;6.8;82.0
79301;SHT31;68755;51.984;5.646;2024-02-26T13:20:47;6.8;82.3
79301;SHT31;68755;51.984;5.646;2024-02-26T13:23:17;6.9;82.1
79301;SHT31;68755;51.984;5.646;2024-02-26T13:25:46;6.9;81.9
79301;SHT31;68755;51.984;5.646;2024-02-26T13:28:17;6.9;82.2
79301;SHT31;68755;51.984;5.646;2024-02-26T13:30:53;6.9;81.7
79301;SHT31;68755;51.984;5.646;2024-02-26T13:33:24;6.9;81.6
79301;SHT31;68755;51.984;5.646;2024-02-26T13:35:55;6.9;81.4
79301;SHT31;68755;51.984;5.646;2024-02-26T13:38:26;6.9;81.4
79301;SHT31;68755;51.984;5.646;2024-02-26T13:40:56;6.9;81.6
79301;SHT31;68755;51.984;5.646;2024-02-26T13:43:26;7.0;81.8
79301;SHT31;68755;51.984;5.646;2024-02-26T13:45:55;7.0;82.0
79301;SHT31;68755;51.984;5.646;2024-02-26T13:48:25;7.0;81.6
79301;SHT31;68755;51.984;5.646;2024-02-26T13:50:55;7.0;82.0
79301;SHT31;68755;51.984;5.646;2024-02-26T13:53:24;7.0;81.4
79301;SHT31;68755;51.984;5.646;2024-02-26T13:55:56;7.0;81.3
79301;SHT31;68755;51.984;5.646;2024-02-26T13:58:28;7.0;81.4
79301;SHT31;68755;51.984;5.646;2024-02-26T14:00:57;7.1;81.2
79301;SHT31;68755;51.984;5.646;2024-02-26T14:03:30;7.1;80.9
79301;SHT31;68755;51.984;5.646;2024-02-26T14:06:00;7.1;80.5
79301;SHT31;68755;51.984;5.646;2024-02-26T14:08:29;7.2;80.5
79301;SHT31;68755;51.984;5.646;2024-02-26T14:10:59;7.2;80.5
79301;SHT31;68755;51.984;5.646;2024-02-26T14:13:29;7.2;79.7
79301;SHT31;68755;51.984;5.646;2024-02-26T14:15:59;7.2;80.2
79301;SHT31;68755;51.984;5.646;2024-02-26T14:18:28;7.3;79.7
79301;SHT31;68755;51.984;5.646;2024-02-26T14:20:58;7.3;79.5
79301;SHT31;68755;51.984;5.646;2024-02-26T14:23:27;7.3;79.5
79301;SHT31;68755;51.984;5.646;2024-02-26T14:25:58;7.3;79.4
79301;SHT31;68755;51.984;5.646;2024-02-26T14:28:28;7.3;79.4
79301;SHT31;68755;51.984;5.646;2024-02-26T14:30:59;7.4;78.8
79301;SHT31;68755;51.984;5.646;2024-02-26T14:33:32;7.4;78.6
79301;SHT31;68755;51.984;5.646;2024-02-26T14:36:03;7.4;79.1
79301;SHT31;68755;51.984;5.646;2024-02-26T14:38:32;7.4;79.2
79301;SHT31;68755;51.984;5.646;2024-02-26T14:41:03;7.5;78.9
79301;SHT31;68755;51.984;5.646;2024-02-26T14:43:33;7.5;78.6
79301;SHT31;68755;51.984;5.646;2024-02-26T14:46:04;7.5;77.9
79301;SHT31;68755;51.984;5.646;2024-02-26T14:48:34;7.5;78.3
79301;SHT31;68755;51.984;5.646;2024-02-26T14:51:04;7.6;77.8
79301;SHT31;68755;51.984;5.646;2024-02-26T14:53:36;7.6;77.6
79301;SHT31;68755;51.984;5.646;2024-02-26T14:56:06;7.6;77.6
79301;SHT31;68755;51.984;5.646;2024-02-26T14:58:37;7.6;77.8
79301;SHT31;68755;51.984;5.646;2024-02-26T15:01:07;7.6;77.1
79301;SHT31;68755;51.984;5.646;2024-02-26T15:03:37;7.7;76.9
79301;SHT31;68755;51.984;5.646;2024-02-26T15:06:07;7.7;76.3
79301;SHT31;68755;51.984;5.646;2024-02-26T15:08:36;7.7;76.4
79301;SHT31;68755;51.984;5.646;2024-02-26T15:11:09;7.7;76.1
79301;SHT31;68755;51.984;5.646;2024-02-26T15:13:39;7.7;75.5
79301;SHT31;68755;51.984;5.646;2024-02-26T15:16:16;7.7;76.1
79301;SHT31;68755;51.984;5.646;2024-02-26T15:18:44;7.7;75.2
79301;SHT31;68755;51.984;5.646;2024-02-26T15:21:14;7.7;75.5
79301;SHT31;68755;51.984;5.646;2024-02-26T15:23:46;7.7;75.2
79301;SHT31;68755;51.984;5.646;2024-02-26T15:26:18;7.7;75.2
79301;SHT31;68755;51.984;5.646;2024-02-26T15:28:48;7.7;74.7
79301;SHT31;68755;51.984;5.646;2024-02-26T15:31:18;7.7;75.4
79301;SHT31;68755;51.984;5.646;2024-02-26T15:33:48;7.7;74.9
79301;SHT31;68755;51.984;5.646;2024-02-26T15:36:18;7.7;75.4
79301;SHT31;68755;51.984;5.646;2024-02-26T15:38:47;7.7;75.3
79301;SHT31;68755;51.984;5.646;2024-02-26T15:41:17;7.7;74.9
79301;SHT31;68755;51.984;5.646;2024-02-26T15:43:47;7.7;74.7
79301;SHT31;68755;51.984;5.646;2024-02-26T15:46:17;7.7;75.0
79301;SHT31;68755;51.984;5.646;2024-02-26T15:48:47;7.7;74.5
79301;SHT31;68755;51.984;5.646;2024-02-26T15:51:21;7.7;74.4
79301;SHT31;68755;51.984;5.646;2024-02-26T15:53:51;7.7;75.1
79301;SHT31;68755;51.984;5.646;2024-02-26T15:56:22;7.7;74.7
79301;SHT31;68755;51.984;5.646;2024-02-26T15:58:53;7.7;75.1
79301;SHT31;68755;51.984;5.646;2024-02-26T16:01:23;7.7;75.1
79301;SHT31;68755;51.984;5.646;2024-02-26T16:03:53;7.7;75.3
79301;SHT31;68755;51.984;5.646;2024-02-26T16:06:31;7.7;74.8
79301;SHT31;68755;51.984;5.646;2024-02-26T16:09:02;7.7;75.2
79301;SHT31;68755;51.984;5.646;2024-02-26T16:11:34;7.7;75.1
79301;SHT31;68755;51.984;5.646;2024-02-26T16:14:12;7.7;74.5
79301;SHT31;68755;51.984;5.646;2024-02-26T16:16:57;7.7;74.5
79301;SHT31;68755;51.984;5.646;2024-02-26T16:19:27;7.7;74.5
79301;SHT31;68755;51.984;5.646;2024-02-26T16:21:56;7.7;74.5
79301;SHT31;68755;51.984;5.646;2024-02-26T16:24:26;7.7;74.2
79301;SHT31;68755;51.984;5.646;2024-02-26T16:26:56;7.7;74.3
79301;SHT31;68755;51.984;5.646;2024-02-26T16:29:26;7.7;74.3
79301;SHT31;68755;51.984;5.646;2024-02-26T16:31:57;7.7;74.2
79301;SHT31;68755;51.984;5.646;2024-02-26T16:34:27;7.7;73.9
79301;SHT31;68755;51.984;5.646;2024-02-26T16:36:56;7.7;73.9
79301;SHT31;68755;51.984;5.646;2024-02-26T16:39:26;7.7;74.1